createdAt,value
2023-01-11T00:09:16.153Z,100687.49
2023-01-11T00:31:02.343Z,100679.58
2023-01-11T00:52:48.040Z,100669.99
2023-01-11T01:14:34.157Z,100675.77
2023-01-11T01:36:19.898Z,100668.13
2023-01-11T01:58:12.924Z,100652.48
2023-01-11T04:01:12.387Z,100538.98
2023-01-11T04:22:55.553Z,100509.75
2023-01-11T04:44:38.674Z,100488.28
2023-01-11T05:06:22.125Z,100469.50
2023-01-11T05:28:05.950Z,100428.43
2023-01-11T05:49:49.061Z,100406.11
2023-01-11T06:11:32.145Z,100413.83
2023-01-11T06:33:15.489Z,100400.07
2023-01-11T06:54:58.625Z,100385.42
2023-01-11T07:16:43.211Z,100381.58
2023-01-11T07:38:30.012Z,100374.45
2023-01-11T08:00:15.399Z,100363.83
2023-01-11T08:22:06.494Z,100349.15
2023-01-11T08:43:50.170Z,100340.32
2023-01-11T09:05:35.240Z,100337.20
2023-01-11T09:27:19.305Z,100332.09
2023-01-11T09:49:04.391Z,100316.85
2023-01-11T10:33:17.756Z,100262.64
2023-01-11T10:55:02.448Z,100225.40
2023-01-11T11:16:59.209Z,100176.55
2023-01-11T11:39:00.322Z,100133.27
2023-01-11T12:00:48.351Z,100088.84
2023-01-11T12:22:31.491Z,100072.91
2023-01-11T12:44:52.194Z,100071.55
2023-01-11T13:06:40.951Z,100054.15
2023-01-11T13:28:34.443Z,100029.36
2023-01-11T13:50:24.703Z,100012.80
2023-01-11T14:12:23.894Z,100005.95
2023-01-11T14:34:47.517Z,99980.98
2023-01-11T14:56:47.885Z,99972.61
2023-01-11T15:18:32.489Z,99973.44
2023-01-11T15:40:20.234Z,99965.66
2023-01-11T16:02:36.136Z,99971.26
2023-01-11T16:24:24.746Z,99977.59
2023-01-11T16:46:28.373Z,99973.20
2023-01-11T17:08:28.064Z,99968.23
2023-01-11T17:30:18.005Z,99964.41
2023-01-11T17:52:10.281Z,99963.70
2023-01-11T18:13:55.216Z,99958.34
2023-01-11T18:35:45.478Z,99970.64
2023-01-11T18:57:29.740Z,99982.36
2023-01-11T19:19:13.002Z,100004.20
2023-01-11T19:41:05.242Z,100016.05
2023-01-11T20:02:51.397Z,100027.64
2023-01-11T20:24:37.670Z,100049.23
2023-01-11T20:46:32.418Z,100065.32
2023-01-11T21:08:16.408Z,100080.48
2023-01-11T21:30:00.694Z,100092.84
2023-01-11T21:51:43.856Z,100098.52
2023-01-11T22:13:29.342Z,100115.50
2023-01-11T22:35:13.223Z,100130.63
2023-01-11T22:56:57.993Z,100147.06
2023-01-11T23:18:50.892Z,100151.98
2023-01-11T23:40:57.601Z,100150.65
